Time;durP1;ratioP1;P1;durP2;ratioP2;P2;SDS_P1;SDS_P2;PMS_P1;PMS_P2;Temp;Humidity;BMP_temperature;BMP_pressure;BME280_temperature;BME280_humidity;BME280_pressure;Samples;Min_cycle;Max_cycle;Signal;HPM_P1;HPM_P2
2021/01/19 00:00:23;;;;;;;51.13;22.32;;;;;;;-13.94;63.24;99822.98;1771297;81;21300;-66
2021/01/19 00:02:50;;;;;;;40.08;16.32;;;;;;;-13.90;63.20;99815.92;1775644;80;21158;-66
2021/01/19 00:05:17;;;;;;;37.53;15.88;;;;;;;-13.87;62.90;99812.61;1775278;81;21738;-66
2021/01/19 00:07:44;;;;;;;29.80;14.45;;;;;;;-13.98;62.65;99807.61;1747392;82;21277;-66
2021/01/19 00:10:12;;;;;;;36.17;15.25;;;;;;;-14.12;62.69;99807.20;1752121;81;21111;-66
2021/01/19 00:12:39;;;;;;;32.83;14.53;;;;;;;-14.31;62.96;99810.86;1778284;81;21175;-66
2021/01/19 00:15:08;;;;;;;37.30;14.80;;;;;;;-14.45;63.25;99812.55;1761044;81;21777;-66
2021/01/19 00:17:35;;;;;;;31.87;13.32;;;;;;;-14.57;63.48;99799.06;1708362;84;21323;-66
2021/01/19 00:20:04;;;;;;;32.33;16.10;;;;;;;-14.61;63.85;99809.06;1747549;82;21171;-66
2021/01/19 00:22:32;;;;;;;33.92;15.72;;;;;;;-14.63;63.93;99809.45;1686843;84;21189;-66
2021/01/19 00:25:01;;;;;;;35.85;15.85;;;;;;;-14.58;64.37;99806.64;1768430;81;21296;-66
2021/01/19 00:27:28;;;;;;;34.63;15.35;;;;;;;-14.47;64.45;99811.66;1778246;81;21194;-66
2021/01/19 00:29:56;;;;;;;32.73;14.50;;;;;;;-14.38;64.31;99796.70;1778547;81;21676;-66
2021/01/19 00:32:23;;;;;;;31.42;14.60;;;;;;;-14.38;64.20;99799.23;1750702;81;21315;-66
2021/01/19 00:34:50;;;;;;;31.35;14.03;;;;;;;-14.41;64.30;99802.97;1750877;81;21153;-67
2021/01/19 00:37:17;;;;;;;33.30;14.18;;;;;;;-14.46;64.27;99812.13;1767022;81;21126;-67
2021/01/19 00:39:44;;;;;;;30.50;14.10;;;;;;;-14.53;64.28;99802.16;1765891;81;21244;-66
2021/01/19 00:42:12;;;;;;;31.20;14.63;;;;;;;-14.55;64.58;99796.56;1778219;81;21154;-67
2021/01/19 00:44:39;;;;;;;35.03;14.90;;;;;;;-14.52;64.71;99797.95;1775078;81;21288;-67
2021/01/19 00:47:06;;;;;;;33.18;14.83;;;;;;;-14.51;64.65;99784.45;1768074;81;21151;-66
2021/01/19 00:49:34;;;;;;;33.85;15.45;;;;;;;-14.46;64.69;99786.72;1757214;81;21761;-66
2021/01/19 00:52:01;;;;;;;35.50;15.93;;;;;;;-14.40;64.44;99793.23;1778201;80;21186;-66
2021/01/19 00:54:28;;;;;;;35.20;14.93;;;;;;;-14.40;64.29;99789.42;1769095;81;21123;-66
2021/01/19 00:56:55;;;;;;;38.80;16.90;;;;;;;-14.42;64.15;99784.72;1749132;81;21656;-67
2021/01/19 00:59:23;;;;;;;34.45;14.40;;;;;;;-14.43;64.26;99794.42;1757284;81;21445;-67
2021/01/19 01:01:50;;;;;;;31.87;14.40;;;;;;;-14.41;64.36;99788.99;1757499;80;21181;-67
2021/01/19 01:04:18;;;;;;;32.53;15.75;;;;;;;-14.46;64.13;99787.98;1762290;81;21119;-65
2021/01/19 01:06:45;;;;;;;33.40;15.15;;;;;;;-14.50;64.36;99790.84;1768366;81;21320;-65
2021/01/19 01:09:12;;;;;;;29.07;12.93;;;;;;;-14.53;64.55;99790.72;1761159;81;21135;-65
2021/01/19 01:11:42;;;;;;;25.82;13.22;;;;;;;-14.53;64.55;99782.25;1778721;81;21155;-66
2021/01/19 01:14:13;;;;;;;33.20;14.30;;;;;;;-14.56;64.58;99777.09;1772487;81;21186;-65
2021/01/19 01:16:41;;;;;;;25.77;11.28;;;;;;;-14.63;64.61;99784.90;1765108;81;21151;-65
2021/01/19 01:19:09;;;;;;;36.38;16.37;;;;;;;-14.64;64.56;99773.47;1759040;81;21260;-66
2021/01/19 01:21:40;;;;;;;32.25;14.75;;;;;;;-14.62;64.64;99775.20;1765318;81;21131;-66
2021/01/19 01:24:08;;;;;;;29.02;14.68;;;;;;;-14.61;64.78;99778.20;1773018;81;21290;-65
2021/01/19 01:26:37;;;;;;;37.45;15.90;;;;;;;-14.53;64.93;99776.75;1776032;81;21143;-65
2021/01/19 01:29:04;;;;;;;28.87;13.43;;;;;;;-14.54;64.56;99776.33;1777016;81;21147;-66
2021/01/19 01:31:33;;;;;;;26.95;12.47;;;;;;;-14.55;64.48;99780.06;1762095;81;21615;-66
2021/01/19 01:34:00;;;;;;;31.07;13.10;;;;;;;-14.56;64.56;99777.09;1728136;82;21159;-66
2021/01/19 01:36:27;;;;;;;30.00;14.33;;;;;;;-14.55;64.64;99776.25;1769457;81;21285;-66
2021/01/19 01:38:54;;;;;;;29.67;14.47;;;;;;;-14.59;64.67;99785.48;1748473;81;21603;-66
2021/01/19 01:41:23;;;;;;;24.18;11.78;;;;;;;-14.60;64.58;99789.22;1747779;82;21277;-65
2021/01/19 01:43:50;;;;;;;30.50;13.22;;;;;;;-14.58;64.64;99788.87;1747455;82;21185;-65
2021/01/19 01:46:18;;;;;;;33.73;14.90;;;;;;;-14.63;64.66;99792.94;1767781;81;21200;-66
2021/01/19 01:48:48;;;;;;;26.70;13.13;;;;;;;-14.63;64.81;99795.48;1778373;81;21159;-66
2021/01/19 01:51:15;;;;;;;33.85;14.20;;;;;;;-14.63;64.77;99785.32;1778202;80;21317;-66
2021/01/19 01:53:43;;;;;;;24.77;11.45;;;;;;;-14.68;64.84;99788.62;1778078;81;21150;-66
2021/01/19 01:56:11;;;;;;;30.72;13.70;;;;;;;-14.64;64.89;99783.62;1763718;81;21315;-66
2021/01/19 01:58:39;;;;;;;33.85;13.70;;;;;;;-14.72;64.95;99781.69;1750824;81;21216;-65
2021/01/19 02:01:06;;;;;;;30.23;12.33;;;;;;;-14.71;65.25;99777.08;1767227;81;21158;-66
2021/01/19 02:03:33;;;;;;;31.50;12.70;;;;;;;-14.77;65.12;99778.14;1747689;82;21175;-66
2021/01/19 02:06:05;;;;;;;20.88;9.33;;;;;;;-14.89;65.36;99775.23;1759727;81;21261;-65
2021/01/19 02:08:51;;;;;;;30.35;12.63;;;;;;;-14.92;65.51;99772.58;1778807;81;21163;-66
2021/01/19 02:11:24;;;;;;;26.15;11.57;;;;;;;-14.95;65.58;99783.91;1778494;81;21496;-66
2021/01/19 02:14:12;;;;;;;27.90;14.03;;;;;;;-14.90;65.72;99778.58;1778536;81;21155;-66
2021/01/19 02:17:26;;;;;;;25.23;11.25;;;;;;;-14.95;65.50;99778.42;1777368;81;21178;-66
2021/01/19 02:20:07;;;;;;;27.45;12.33;;;;;;;-15.04;65.64;99784.05;1778195;81;21231;-65
2021/01/19 02:23:01;;;;;;;29.75;11.48;;;;;;;-15.08;65.90;99771.23;1778084;81;21114;-66
2021/01/19 02:25:54;;;;;;;27.30;13.35;;;;;;;-15.10;66.00;99787.67;1773655;81;21449;-66
2021/01/19 02:28:43;;;;;;;25.10;11.63;;;;;;;-15.07;66.03;99781.42;1749682;81;21166;-66
2021/01/19 02:31:28;;;;;;;21.27;11.95;;;;;;;-15.09;65.96;99793.19;1755680;81;21071;-65
2021/01/19 02:34:17;;;;;;;28.10;13.48;;;;;;;-15.18;65.99;99786.16;1776480;81;21178;-66
2021/01/19 02:36:56;;;;;;;28.80;12.05;;;;;;;-15.14;66.04;99784.56;1751694;81;21729;-65
2021/01/19 02:39:55;;;;;;;27.10;12.63;;;;;;;-15.13;65.91;99786.28;1765964;81;21166;-65
2021/01/19 02:42:30;;;;;;;25.52;11.73;;;;;;;-15.20;65.90;99776.77;1753923;81;21123;-65
2021/01/19 02:44:57;;;;;;;29.27;13.13;;;;;;;-15.18;65.84;99787.81;1754246;81;21310;-64
2021/01/19 02:47:24;;;;;;;28.07;12.43;;;;;;;-15.12;65.94;99779.56;1776208;81;21522;-65
2021/01/19 02:49:51;;;;;;;23.32;10.70;;;;;;;-15.04;65.76;99776.44;1778206;81;21289;-65
2021/01/19 02:52:19;;;;;;;26.52;11.65;;;;;;;-15.02;65.64;99778.63;1759616;81;21323;-65
2021/01/19 02:54:46;;;;;;;30.12;12.05;;;;;;;-15.01;65.34;99786.70;1748910;81;22224;-65
2021/01/19 02:57:51;;;;;;;30.05;13.32;;;;;;;-15.07;65.22;99779.30;1761878;81;21153;-65
2021/01/19 03:00:27;;;;;;;26.48;11.93;;;;;;;-15.12;65.23;99777.88;1778217;81;21178;-66
2021/01/19 03:02:55;;;;;;;22.52;11.88;;;;;;;-15.10;65.20;99780.45;1731252;82;21130;-65
2021/01/19 03:05:23;;;;;;;24.60;12.70;;;;;;;-15.14;65.21;99778.21;1762132;81;21273;-65
2021/01/19 03:07:51;;;;;;;28.83;12.47;;;;;;;-15.16;65.25;99776.05;1777380;81;21320;-65
2021/01/19 03:10:18;;;;;;;26.75;11.83;;;;;;;-15.11;65.30;99771.11;1753606;81;21289;-65
2021/01/19 03:12:47;;;;;;;24.12;10.65;;;;;;;-15.09;65.08;99783.03;1748007;82;21199;-65
2021/01/19 03:15:16;;;;;;;22.67;10.03;;;;;;;-15.20;65.02;99780.16;1748536;81;21285;-65
2021/01/19 03:17:45;;;;;;;22.65;10.40;;;;;;;-15.22;64.93;99778.38;1760606;81;21194;-67
2021/01/19 03:20:14;;;;;;;26.12;11.48;;;;;;;-15.33;65.01;99786.48;1763987;81;21570;-67
2021/01/19 03:22:41;;;;;;;24.50;9.90;;;;;;;-15.46;65.24;99772.91;1770041;81;21288;-66
2021/01/19 03:25:09;;;;;;;21.10;10.18;;;;;;;-15.49;65.26;99782.96;1750119;81;21304;-66
2021/01/19 03:27:37;;;;;;;25.95;11.08;;;;;;;-15.52;65.21;99782.45;1774003;81;21285;-65
2021/01/19 03:30:06;;;;;;;22.42;10.13;;;;;;;-15.54;65.13;99775.59;1778196;81;21138;-66
2021/01/19 03:32:33;;;;;;;29.82;12.37;;;;;;;-15.63;65.04;99783.73;1777071;81;21182;-65
2021/01/19 03:35:01;;;;;;;27.70;10.78;;;;;;;-15.69;65.08;99779.72;1757265;81;21293;-65
2021/01/19 03:37:28;;;;;;;23.47;11.18;;;;;;;-15.76;65.13;99773.98;1779073;81;21134;-65
2021/01/19 03:39:55;;;;;;;23.67;10.23;;;;;;;-15.86;65.18;99779.16;1776586;81;21687;-65
2021/01/19 03:42:22;;;;;;;24.75;10.68;;;;;;;-15.85;65.20;99784.27;1778788;81;21326;-65
2021/01/19 03:44:50;;;;;;;22.90;11.12;;;;;;;-15.82;65.26;99780.98;1777792;81;21158;-65
2021/01/19 03:47:17;;;;;;;25.17;11.83;;;;;;;-15.84;65.02;99776.28;1768235;81;21141;-65
2021/01/19 03:49:44;;;;;;;26.00;9.73;;;;;;;-15.88;64.95;99775.30;1779046;81;21160;-65
2021/01/19 03:52:11;;;;;;;25.55;10.30;;;;;;;-15.94;64.92;99775.46;1778622;80;21324;-65
2021/01/19 03:54:39;;;;;;;21.80;11.12;;;;;;;-15.95;64.93;99788.97;1778409;81;21135;-66
2021/01/19 03:57:06;;;;;;;25.23;10.72;;;;;;;-15.96;64.86;99782.16;1777594;81;21575;-65
2021/01/19 03:59:34;;;;;;;26.02;10.63;;;;;;;-15.98;64.94;99790.98;1756253;81;21300;-66
2021/01/19 04:02:01;;;;;;;26.15;11.30;;;;;;;-15.97;65.03;99784.23;1755042;81;21154;-66
2021/01/19 04:04:29;;;;;;;30.12;11.57;;;;;;;-15.91;65.09;99780.24;1747403;82;21683;-66
2021/01/19 04:06:56;;;;;;;24.05;10.60;;;;;;;-15.83;64.73;99776.33;1760823;81;21281;-66
2021/01/19 04:09:23;;;;;;;25.57;11.38;;;;;;;-15.90;64.41;99778.59;1747510;82;21165;-66
2021/01/19 04:11:50;;;;;;;23.15;11.40;;;;;;;-15.97;64.57;99775.36;1747586;82;21142;-67
2021/01/19 04:14:20;;;;;;;24.35;11.03;;;;;;;-16.01;64.61;99776.53;1770398;81;21606;-66
2021/01/19 04:16:47;;;;;;;22.05;11.57;;;;;;;-16.00;64.80;99771.05;1778024;80;21178;-66
2021/01/19 04:19:14;;;;;;;24.30;10.45;;;;;;;-15.94;64.97;99765.33;1778099;81;21135;-65
2021/01/19 04:21:41;;;;;;;20.88;10.28;;;;;;;-15.91;65.01;99775.59;1765161;81;21153;-65
2021/01/19 04:24:10;;;;;;;28.77;11.95;;;;;;;-15.86;65.08;99769.02;1778389;81;21707;-65
2021/01/19 04:26:38;;;;;;;27.03;11.73;;;;;;;-15.81;65.19;99768.78;1760648;81;21277;-65
2021/01/19 04:29:05;;;;;;;27.48;11.38;;;;;;;-15.76;65.10;99761.31;1772491;81;21186;-64
2021/01/19 04:31:32;;;;;;;21.37;10.65;;;;;;;-15.74;65.03;99762.22;1769622;81;21147;-65
2021/01/19 04:33:59;;;;;;;23.85;12.23;;;;;;;-15.72;65.05;99765.27;1747454;82;21166;-65
2021/01/19 04:36:26;;;;;;;23.67;10.10;;;;;;;-15.72;64.93;99779.62;1749519;81;21261;-64
2021/01/19 04:38:54;;;;;;;35.33;13.48;;;;;;;-15.71;64.84;99775.86;1751670;81;21587;-65
2021/01/19 04:41:21;;;;;;;25.17;12.15;;;;;;;-15.72;64.80;99788.08;1764437;81;21638;-65
2021/01/19 04:43:48;;;;;;;24.07;11.57;;;;;;;-15.73;64.65;99783.81;1778310;81;21235;-65
2021/01/19 04:46:15;;;;;;;30.60;13.25;;;;;;;-15.79;64.60;99773.48;1764756;81;21292;-65
2021/01/19 04:48:43;;;;;;;30.30;13.88;;;;;;;-15.89;64.63;99775.22;1749607;81;21099;-65
2021/01/19 04:51:16;;;;;;;27.90;11.12;;;;;;;-15.96;64.76;99780.89;1703671;82;21277;-65
2021/01/19 04:53:48;;;;;;;25.52;10.15;;;;;;;-16.02;64.78;99781.13;1765337;81;21174;-66
2021/01/19 04:58:54;;;;;;;20.77;9.70;;;;;;;-16.14;64.89;99784.47;1767269;79;23814;-65
2021/01/19 05:01:39;;;;;;;18.37;9.13;;;;;;;-16.21;65.10;99796.05;1755149;81;21598;-65
2021/01/19 05:04:48;;;;;;;23.57;10.00;;;;;;;-16.23;65.06;99796.38;1736743;81;21090;-65
2021/01/19 05:07:30;;;;;;;24.00;10.43;;;;;;;-16.24;65.23;99806.45;1720553;83;21564;-64
2021/01/19 05:10:12;;;;;;;26.87;9.95;;;;;;;-16.19;65.26;99811.30;1699495;84;21211;-65
2021/01/19 05:12:43;;;;;;;25.65;11.78;;;;;;;-16.18;65.39;99805.43;1712171;83;21159;-65
2021/01/19 05:15:14;;;;;;;22.02;10.08;;;;;;;-16.21;65.34;99811.24;1730555;83;21293;-65
2021/01/19 05:17:42;;;;;;;24.30;10.53;;;;;;;-16.16;65.58;99819.88;1701690;84;21623;-66
2021/01/19 05:20:11;;;;;;;18.30;9.18;;;;;;;-16.04;65.67;99823.69;1703369;84;21600;-65
2021/01/19 05:22:39;;;;;;;17.27;8.30;;;;;;;-15.93;65.63;99825.34;1701994;84;21147;-65
2021/01/19 05:25:09;;;;;;;28.17;11.50;;;;;;;-15.92;65.59;99830.88;1701836;84;21607;-66
2021/01/19 05:27:36;;;;;;;24.27;12.13;;;;;;;-15.92;65.57;99822.00;1722522;83;21520;-66
2021/01/19 05:30:05;;;;;;;18.77;9.05;;;;;;;-15.86;65.72;99823.50;1677304;85;21206;-66
2021/01/19 05:32:39;;;;;;;26.30;11.05;;;;;;;-15.74;65.58;99821.39;1695506;84;21138;-66
2021/01/19 05:35:21;;;;;;;23.02;10.18;;;;;;;-15.70;65.43;99816.89;1707462;84;21614;-65
2021/01/19 05:37:58;;;;;;;15.00;7.50;;;;;;;-15.66;65.47;99826.74;1703297;84;21573;-64
2021/01/19 05:40:26;;;;;;;18.32;8.43;;;;;;;-15.73;65.56;99817.17;1704128;84;21563;-64
2021/01/19 05:42:54;;;;;;;21.33;8.03;;;;;;;-15.70;65.75;99828.30;1687591;84;21670;-65
2021/01/19 05:45:21;;;;;;;21.12;9.73;;;;;;;-15.66;65.68;99829.27;1692284;84;21151;-65
2021/01/19 05:47:49;;;;;;;16.95;7.50;;;;;;;-15.62;65.76;99836.56;1707246;84;21123;-64
2021/01/19 05:50:16;;;;;;;17.82;8.83;;;;;;;-15.58;65.64;99829.55;1707077;84;21572;-65
2021/01/19 05:52:43;;;;;;;17.35;8.53;;;;;;;-15.50;65.64;99833.21;1707016;84;21167;-65
2021/01/19 05:55:11;;;;;;;24.85;11.15;;;;;;;-15.48;65.33;99831.61;1707069;84;21202;-65
2021/01/19 05:57:39;;;;;;;22.15;9.28;;;;;;;-15.53;65.36;99821.70;1700391;83;21187;-65
2021/01/19 06:00:09;;;;;;;18.05;8.73;;;;;;;-15.52;65.44;99815.83;1701122;84;21194;-66
2021/01/19 06:02:42;;;;;;;17.30;7.90;;;;;;;-15.53;65.33;99815.37;1700092;84;21159;-65
